sensor_id;sensor_type;location;lat;lon;timestamp;P1;durP1;ratioP1;P2;durP2;ratioP2
7402;SDS011;3742;48.770;11.440;2022-12-11T00:01:17;19.03;;;14.80;;
7402;SDS011;3742;48.770;11.440;2022-12-11T00:03:47;18.47;;;14.63;;
7402;SDS011;3742;48.770;11.440;2022-12-11T00:06:16;20.03;;;15.33;;
7402;SDS011;3742;48.770;11.440;2022-12-11T00:08:49;18.50;;;13.10;;
7402;SDS011;3742;48.770;11.440;2022-12-11T00:11:18;18.17;;;14.23;;
7402;SDS011;3742;48.770;11.440;2022-12-11T00:13:47;18.57;;;15.03;;
7402;SDS011;3742;48.770;11.440;2022-12-11T00:16:15;18.87;;;14.20;;
7402;SDS011;3742;48.770;11.440;2022-12-11T00:18:51;19.13;;;14.43;;
7402;SDS011;3742;48.770;11.440;2022-12-11T00:21:19;18.67;;;13.87;;
7402;SDS011;3742;48.770;11.440;2022-12-11T00:23:49;17.30;;;14.10;;
7402;SDS011;3742;48.770;11.440;2022-12-11T00:26:18;18.57;;;14.47;;
7402;SDS011;3742;48.770;11.440;2022-12-11T00:28:47;18.20;;;14.40;;
7402;SDS011;3742;48.770;11.440;2022-12-11T00:31:20;17.40;;;13.10;;
7402;SDS011;3742;48.770;11.440;2022-12-11T00:33:49;17.73;;;13.97;;
7402;SDS011;3742;48.770;11.440;2022-12-11T00:36:18;17.60;;;14.33;;
7402;SDS011;3742;48.770;11.440;2022-12-11T00:38:48;16.20;;;13.77;;
7402;SDS011;3742;48.770;11.440;2022-12-11T00:41:18;16.80;;;13.37;;
7402;SDS011;3742;48.770;11.440;2022-12-11T00:43:48;17.20;;;13.40;;
7402;SDS011;3742;48.770;11.440;2022-12-11T00:46:16;18.60;;;13.60;;
7402;SDS011;3742;48.770;11.440;2022-12-11T00:48:45;17.33;;;13.97;;
7402;SDS011;3742;48.770;11.440;2022-12-11T00:51:16;16.50;;;13.93;;
7402;SDS011;3742;48.770;11.440;2022-12-11T00:53:44;18.77;;;14.47;;
7402;SDS011;3742;48.770;11.440;2022-12-11T00:56:16;18.77;;;13.43;;
7402;SDS011;3742;48.770;11.440;2022-12-11T00:58:46;18.30;;;13.83;;
7402;SDS011;3742;48.770;11.440;2022-12-11T01:01:16;17.70;;;13.70;;
7402;SDS011;3742;48.770;11.440;2022-12-11T01:03:46;17.87;;;13.13;;
7402;SDS011;3742;48.770;11.440;2022-12-11T01:06:15;17.03;;;13.37;;
7402;SDS011;3742;48.770;11.440;2022-12-11T01:08:45;17.80;;;12.87;;
7402;SDS011;3742;48.770;11.440;2022-12-11T01:11:15;18.67;;;13.83;;
7402;SDS011;3742;48.770;11.440;2022-12-11T01:13:43;17.17;;;13.17;;
7402;SDS011;3742;48.770;11.440;2022-12-11T01:16:12;16.13;;;12.57;;
7402;SDS011;3742;48.770;11.440;2022-12-11T01:18:42;12.90;;;10.43;;
7402;SDS011;3742;48.770;11.440;2022-12-11T01:21:11;14.37;;;11.07;;
7402;SDS011;3742;48.770;11.440;2022-12-11T01:23:40;15.17;;;10.80;;
7402;SDS011;3742;48.770;11.440;2022-12-11T01:26:09;16.27;;;11.23;;
7402;SDS011;3742;48.770;11.440;2022-12-11T01:28:40;15.07;;;11.87;;
7402;SDS011;3742;48.770;11.440;2022-12-11T01:31:10;15.73;;;12.33;;
7402;SDS011;3742;48.770;11.440;2022-12-11T01:33:39;13.27;;;10.17;;
7402;SDS011;3742;48.770;11.440;2022-12-11T01:36:09;13.00;;;10.03;;
7402;SDS011;3742;48.770;11.440;2022-12-11T01:38:38;13.93;;;10.43;;
7402;SDS011;3742;48.770;11.440;2022-12-11T01:41:08;14.47;;;11.63;;
7402;SDS011;3742;48.770;11.440;2022-12-11T01:46:26;17.00;;;11.93;;
7402;SDS011;3742;48.770;11.440;2022-12-11T01:48:56;15.60;;;11.33;;
7402;SDS011;3742;48.770;11.440;2022-12-11T01:51:24;13.97;;;11.40;;
7402;SDS011;3742;48.770;11.440;2022-12-11T01:53:54;14.57;;;12.00;;
7402;SDS011;3742;48.770;11.440;2022-12-11T01:56:24;14.40;;;11.27;;
7402;SDS011;3742;48.770;11.440;2022-12-11T01:58:54;13.83;;;11.07;;
7402;SDS011;3742;48.770;11.440;2022-12-11T02:01:27;13.73;;;11.17;;
7402;SDS011;3742;48.770;11.440;2022-12-11T02:03:59;15.57;;;11.50;;
7402;SDS011;3742;48.770;11.440;2022-12-11T02:06:29;15.57;;;11.63;;
7402;SDS011;3742;48.770;11.440;2022-12-11T02:08:59;15.87;;;12.00;;
7402;SDS011;3742;48.770;11.440;2022-12-11T02:11:29;14.53;;;12.00;;
7402;SDS011;3742;48.770;11.440;2022-12-11T02:14:04;14.63;;;11.80;;
7402;SDS011;3742;48.770;11.440;2022-12-11T02:16:37;18.23;;;14.80;;
7402;SDS011;3742;48.770;11.440;2022-12-11T02:19:12;13.67;;;11.97;;
7402;SDS011;3742;48.770;11.440;2022-12-11T02:21:47;14.37;;;12.57;;
7402;SDS011;3742;48.770;11.440;2022-12-11T02:24:23;15.57;;;12.97;;
7402;SDS011;3742;48.770;11.440;2022-12-11T02:27:02;18.13;;;13.17;;
7402;SDS011;3742;48.770;11.440;2022-12-11T02:29:44;15.97;;;13.17;;
7402;SDS011;3742;48.770;11.440;2022-12-11T02:32:18;17.07;;;12.90;;
7402;SDS011;3742;48.770;11.440;2022-12-11T02:34:50;13.73;;;11.10;;
7402;SDS011;3742;48.770;11.440;2022-12-11T02:37:23;16.40;;;13.20;;
7402;SDS011;3742;48.770;11.440;2022-12-11T02:39:55;15.70;;;12.50;;
7402;SDS011;3742;48.770;11.440;2022-12-11T02:42:26;14.60;;;12.70;;
7402;SDS011;3742;48.770;11.440;2022-12-11T02:44:58;14.83;;;12.67;;
7402;SDS011;3742;48.770;11.440;2022-12-11T02:47:29;13.77;;;11.57;;
7402;SDS011;3742;48.770;11.440;2022-12-11T02:49:59;15.20;;;12.27;;
7402;SDS011;3742;48.770;11.440;2022-12-11T02:52:29;12.87;;;11.23;;
7402;SDS011;3742;48.770;11.440;2022-12-11T02:54:58;13.60;;;11.37;;
7402;SDS011;3742;48.770;11.440;2022-12-11T02:57:28;14.37;;;11.50;;
7402;SDS011;3742;48.770;11.440;2022-12-11T03:00:00;14.47;;;12.13;;
7402;SDS011;3742;48.770;11.440;2022-12-11T03:02:29;13.20;;;11.03;;
7402;SDS011;3742;48.770;11.440;2022-12-11T03:04:58;15.23;;;12.17;;
7402;SDS011;3742;48.770;11.440;2022-12-11T03:07:32;15.10;;;12.07;;
7402;SDS011;3742;48.770;11.440;2022-12-11T03:10:03;13.27;;;10.87;;
7402;SDS011;3742;48.770;11.440;2022-12-11T03:12:33;13.47;;;10.70;;
7402;SDS011;3742;48.770;11.440;2022-12-11T03:15:06;13.83;;;11.50;;
7402;SDS011;3742;48.770;11.440;2022-12-11T03:17:37;14.07;;;11.63;;
7402;SDS011;3742;48.770;11.440;2022-12-11T03:20:12;13.40;;;10.83;;
7402;SDS011;3742;48.770;11.440;2022-12-11T03:22:46;13.67;;;11.60;;
7402;SDS011;3742;48.770;11.440;2022-12-11T03:25:19;14.07;;;11.17;;
7402;SDS011;3742;48.770;11.440;2022-12-11T03:27:52;15.17;;;11.73;;
7402;SDS011;3742;48.770;11.440;2022-12-11T03:30:24;13.43;;;11.07;;
7402;SDS011;3742;48.770;11.440;2022-12-11T03:32:55;15.23;;;11.33;;
7402;SDS011;3742;48.770;11.440;2022-12-11T03:35:26;13.40;;;11.13;;
7402;SDS011;3742;48.770;11.440;2022-12-11T03:37:59;13.97;;;11.60;;
7402;SDS011;3742;48.770;11.440;2022-12-11T03:40:29;12.40;;;11.03;;
7402;SDS011;3742;48.770;11.440;2022-12-11T03:43:00;12.80;;;11.20;;
7402;SDS011;3742;48.770;11.440;2022-12-11T03:45:31;12.27;;;10.20;;
7402;SDS011;3742;48.770;11.440;2022-12-11T03:47:59;12.40;;;10.57;;
7402;SDS011;3742;48.770;11.440;2022-12-11T03:50:29;12.47;;;11.00;;
7402;SDS011;3742;48.770;11.440;2022-12-11T03:52:59;12.53;;;11.07;;
7402;SDS011;3742;48.770;11.440;2022-12-11T03:55:28;12.50;;;10.63;;
7402;SDS011;3742;48.770;11.440;2022-12-11T03:57:56;14.50;;;11.40;;
7402;SDS011;3742;48.770;11.440;2022-12-11T04:00:25;14.63;;;11.40;;
7402;SDS011;3742;48.770;11.440;2022-12-11T04:02:55;11.70;;;10.03;;
7402;SDS011;3742;48.770;11.440;2022-12-11T04:05:44;12.53;;;10.77;;
7402;SDS011;3742;48.770;11.440;2022-12-11T04:08:13;13.57;;;11.30;;
7402;SDS011;3742;48.770;11.440;2022-12-11T04:10:42;14.33;;;11.70;;
7402;SDS011;3742;48.770;11.440;2022-12-11T04:13:11;14.47;;;11.33;;
7402;SDS011;3742;48.770;11.440;2022-12-11T04:15:40;14.30;;;11.03;;
7402;SDS011;3742;48.770;11.440;2022-12-11T04:18:09;14.67;;;12.43;;
7402;SDS011;3742;48.770;11.440;2022-12-11T04:20:55;13.20;;;11.00;;
7402;SDS011;3742;48.770;11.440;2022-12-11T04:23:41;11.80;;;10.40;;
7402;SDS011;3742;48.770;11.440;2022-12-11T04:26:27;14.00;;;11.57;;
7402;SDS011;3742;48.770;11.440;2022-12-11T04:28:55;13.33;;;11.43;;
7402;SDS011;3742;48.770;11.440;2022-12-11T04:31:24;13.83;;;11.23;;
7402;SDS011;3742;48.770;11.440;2022-12-11T04:33:54;13.77;;;11.30;;
7402;SDS011;3742;48.770;11.440;2022-12-11T04:36:22;15.53;;;11.57;;
7402;SDS011;3742;48.770;11.440;2022-12-11T04:38:51;14.47;;;12.33;;
7402;SDS011;3742;48.770;11.440;2022-12-11T04:41:20;14.50;;;12.13;;
7402;SDS011;3742;48.770;11.440;2022-12-11T04:43:48;14.47;;;11.90;;
7402;SDS011;3742;48.770;11.440;2022-12-11T04:46:18;15.00;;;12.33;;
7402;SDS011;3742;48.770;11.440;2022-12-11T04:48:47;15.70;;;12.20;;
7402;SDS011;3742;48.770;11.440;2022-12-11T04:51:24;14.47;;;11.63;;
7402;SDS011;3742;48.770;11.440;2022-12-11T04:53:53;14.80;;;12.10;;
7402;SDS011;3742;48.770;11.440;2022-12-11T04:56:22;14.87;;;12.57;;
7402;SDS011;3742;48.770;11.440;2022-12-11T04:58:50;16.23;;;13.37;;
7402;SDS011;3742;48.770;11.440;2022-12-11T05:01:20;14.97;;;12.37;;
7402;SDS011;3742;48.770;11.440;2022-12-11T05:03:49;16.90;;;13.13;;
7402;SDS011;3742;48.770;11.440;2022-12-11T05:06:18;16.23;;;13.43;;
7402;SDS011;3742;48.770;11.440;2022-12-11T05:08:48;17.07;;;14.03;;
7402;SDS011;3742;48.770;11.440;2022-12-11T05:11:16;17.13;;;13.77;;
7402;SDS011;3742;48.770;11.440;2022-12-11T05:13:45;15.20;;;13.33;;
7402;SDS011;3742;48.770;11.440;2022-12-11T05:16:14;17.23;;;13.73;;
7402;SDS011;3742;48.770;11.440;2022-12-11T05:18:44;19.20;;;13.97;;
7402;SDS011;3742;48.770;11.440;2022-12-11T05:21:13;15.57;;;13.57;;
7402;SDS011;3742;48.770;11.440;2022-12-11T05:23:42;17.33;;;13.77;;
7402;SDS011;3742;48.770;11.440;2022-12-11T05:26:13;17.20;;;13.17;;
7402;SDS011;3742;48.770;11.440;2022-12-11T05:28:43;16.77;;;14.20;;
7402;SDS011;3742;48.770;11.440;2022-12-11T05:31:13;17.43;;;13.27;;
7402;SDS011;3742;48.770;11.440;2022-12-11T05:33:43;15.40;;;13.80;;
7402;SDS011;3742;48.770;11.440;2022-12-11T05:36:14;17.57;;;14.37;;
7402;SDS011;3742;48.770;11.440;2022-12-11T05:38:44;18.03;;;14.70;;
7402;SDS011;3742;48.770;11.440;2022-12-11T05:41:14;20.23;;;15.67;;
7402;SDS011;3742;48.770;11.440;2022-12-11T05:43:44;18.50;;;14.53;;
7402;SDS011;3742;48.770;11.440;2022-12-11T05:46:13;17.27;;;14.10;;
7402;SDS011;3742;48.770;11.440;2022-12-11T05:48:43;17.17;;;13.20;;
7402;SDS011;3742;48.770;11.440;2022-12-11T05:51:13;17.23;;;13.67;;
7402;SDS011;3742;48.770;11.440;2022-12-11T05:53:42;16.10;;;13.43;;
7402;SDS011;3742;48.770;11.440;2022-12-11T05:56:12;17.83;;;14.10;;
7402;SDS011;3742;48.770;11.440;2022-12-11T05:58:43;17.37;;;13.87;;
7402;SDS011;3742;48.770;11.440;2022-12-11T06:01:13;17.20;;;12.87;;
7402;SDS011;3742;48.770;11.440;2022-12-11T06:03:42;16.10;;;12.67;;
7402;SDS011;3742;48.770;11.440;2022-12-11T06:06:11;15.40;;;12.60;;
7402;SDS011;3742;48.770;11.440;2022-12-11T06:08:39;15.63;;;13.50;;
7402;SDS011;3742;48.770;11.440;2022-12-11T06:11:08;15.93;;;13.20;;
7402;SDS011;3742;48.770;11.440;2022-12-11T06:13:39;17.47;;;13.67;;
7402;SDS011;3742;48.770;11.440;2022-12-11T06:16:08;19.33;;;14.63;;
7402;SDS011;3742;48.770;11.440;2022-12-11T06:18:38;17.90;;;13.63;;
7402;SDS011;3742;48.770;11.440;2022-12-11T06:21:13;16.33;;;12.70;;
7402;SDS011;3742;48.770;11.440;2022-12-11T06:23:43;16.53;;;12.97;;
7402;SDS011;3742;48.770;11.440;2022-12-11T06:26:12;17.33;;;13.57;;
7402;SDS011;3742;48.770;11.440;2022-12-11T06:28:42;18.53;;;13.83;;
7402;SDS011;3742;48.770;11.440;2022-12-11T06:31:11;16.80;;;13.17;;
7402;SDS011;3742;48.770;11.440;2022-12-11T06:33:41;17.93;;;14.03;;
7402;SDS011;3742;48.770;11.440;2022-12-11T06:36:11;16.67;;;13.57;;
7402;SDS011;3742;48.770;11.440;2022-12-11T06:38:40;16.63;;;13.50;;
7402;SDS011;3742;48.770;11.440;2022-12-11T06:41:10;17.07;;;13.00;;
7402;SDS011;3742;48.770;11.440;2022-12-11T06:43:39;16.63;;;13.03;;
7402;SDS011;3742;48.770;11.440;2022-12-11T06:46:11;16.53;;;13.23;;
7402;SDS011;3742;48.770;11.440;2022-12-11T06:48:41;15.10;;;12.70;;
7402;SDS011;3742;48.770;11.440;2022-12-11T06:51:10;15.60;;;12.87;;
7402;SDS011;3742;48.770;11.440;2022-12-11T06:53:40;16.03;;;12.53;;
7402;SDS011;3742;48.770;11.440;2022-12-11T06:56:09;14.83;;;12.07;;
7402;SDS011;3742;48.770;11.440;2022-12-11T06:58:39;13.93;;;11.47;;
7402;SDS011;3742;48.770;11.440;2022-12-11T07:01:13;15.73;;;12.37;;
7402;SDS011;3742;48.770;11.440;2022-12-11T07:03:44;14.83;;;11.50;;
7402;SDS011;3742;48.770;11.440;2022-12-11T07:06:13;13.93;;;11.43;;
7402;SDS011;3742;48.770;11.440;2022-12-11T07:08:42;13.80;;;11.17;;
7402;SDS011;3742;48.770;11.440;2022-12-11T07:11:12;15.00;;;11.90;;
7402;SDS011;3742;48.770;11.440;2022-12-11T07:13:41;17.20;;;12.03;;
7402;SDS011;3742;48.770;11.440;2022-12-11T07:16:11;13.83;;;11.30;;
7402;SDS011;3742;48.770;11.440;2022-12-11T07:18:42;15.60;;;10.70;;
7402;SDS011;3742;48.770;11.440;2022-12-11T07:21:13;12.90;;;11.30;;
7402;SDS011;3742;48.770;11.440;2022-12-11T07:23:42;14.67;;;11.63;;
7402;SDS011;3742;48.770;11.440;2022-12-11T07:26:12;14.60;;;11.67;;
7402;SDS011;3742;48.770;11.440;2022-12-11T07:28:42;13.03;;;11.10;;
7402;SDS011;3742;48.770;11.440;2022-12-11T07:31:11;13.57;;;11.40;;
7402;SDS011;3742;48.770;11.440;2022-12-11T07:33:42;12.93;;;11.03;;
7402;SDS011;3742;48.770;11.440;2022-12-11T07:36:11;13.10;;;10.90;;
7402;SDS011;3742;48.770;11.440;2022-12-11T07:38:41;13.30;;;11.13;;
7402;SDS011;3742;48.770;11.440;2022-12-11T07:41:10;14.50;;;10.70;;
7402;SDS011;3742;48.770;11.440;2022-12-11T07:43:40;14.70;;;10.83;;
7402;SDS011;3742;48.770;11.440;2022-12-11T07:46:10;13.93;;;10.33;;
7402;SDS011;3742;48.770;11.440;2022-12-11T07:48:40;13.77;;;10.90;;
7402;SDS011;3742;48.770;11.440;2022-12-11T07:51:12;12.37;;;10.53;;
7402;SDS011;3742;48.770;11.440;2022-12-11T07:53:43;13.80;;;10.43;;
7402;SDS011;3742;48.770;11.440;2022-12-11T07:56:12;12.30;;;10.40;;
7402;SDS011;3742;48.770;11.440;2022-12-11T07:58:41;15.30;;;11.37;;
7402;SDS011;3742;48.770;11.440;2022-12-11T08:01:10;12.47;;;10.27;;
7402;SDS011;3742;48.770;11.440;2022-12-11T08:03:40;13.70;;;10.50;;
7402;SDS011;3742;48.770;11.440;2022-12-11T08:06:09;13.50;;;10.20;;
7402;SDS011;3742;48.770;11.440;2022-12-11T08:08:39;13.53;;;10.10;;
7402;SDS011;3742;48.770;11.440;2022-12-11T08:11:09;15.23;;;10.90;;
7402;SDS011;3742;48.770;11.440;2022-12-11T08:13:39;12.47;;;10.03;;
7402;SDS011;3742;48.770;11.440;2022-12-11T08:16:09;12.27;;;10.63;;
7402;SDS011;3742;48.770;11.440;2022-12-11T08:18:39;12.27;;;10.67;;
7402;SDS011;3742;48.770;11.440;2022-12-11T08:21:10;12.63;;;10.30;;
7402;SDS011;3742;48.770;11.440;2022-12-11T08:23:41;12.07;;;10.33;;
7402;SDS011;3742;48.770;11.440;2022-12-11T08:26:10;12.97;;;10.60;;
7402;SDS011;3742;48.770;11.440;2022-12-11T08:28:41;11.73;;;8.97;;
7402;SDS011;3742;48.770;11.440;2022-12-11T08:31:10;12.63;;;10.40;;
7402;SDS011;3742;48.770;11.440;2022-12-11T08:33:40;13.93;;;10.37;;
7402;SDS011;3742;48.770;11.440;2022-12-11T08:36:09;12.83;;;10.73;;
7402;SDS011;3742;48.770;11.440;2022-12-11T08:38:40;11.30;;;10.20;;
7402;SDS011;3742;48.770;11.440;2022-12-11T08:41:09;12.70;;;10.57;;
7402;SDS011;3742;48.770;11.440;2022-12-11T08:43:38;12.10;;;10.03;;
7402;SDS011;3742;48.770;11.440;2022-12-11T08:46:07;13.90;;;10.87;;
7402;SDS011;3742;48.770;11.440;2022-12-11T08:48:37;13.73;;;10.73;;
7402;SDS011;3742;48.770;11.440;2022-12-11T08:51:07;14.00;;;10.93;;
7402;SDS011;3742;48.770;11.440;2022-12-11T08:53:40;13.43;;;10.77;;
7402;SDS011;3742;48.770;11.440;2022-12-11T08:56:09;13.50;;;10.63;;
7402;SDS011;3742;48.770;11.440;2022-12-11T08:58:39;13.20;;;10.73;;
7402;SDS011;3742;48.770;11.440;2022-12-11T09:01:08;14.80;;;11.40;;
7402;SDS011;3742;48.770;11.440;2022-12-11T09:03:38;12.53;;;11.00;;
7402;SDS011;3742;48.770;11.440;2022-12-11T09:06:07;13.40;;;10.83;;
7402;SDS011;3742;48.770;11.440;2022-12-11T09:08:39;15.03;;;13.43;;
7402;SDS011;3742;48.770;11.440;2022-12-11T09:11:17;13.47;;;11.67;;
7402;SDS011;3742;48.770;11.440;2022-12-11T09:13:47;14.60;;;11.33;;
7402;SDS011;3742;48.770;11.440;2022-12-11T09:16:17;15.50;;;12.33;;
7402;SDS011;3742;48.770;11.440;2022-12-11T09:18:47;15.67;;;12.33;;
7402;SDS011;3742;48.770;11.440;2022-12-11T09:21:18;14.67;;;12.00;;
7402;SDS011;3742;48.770;11.440;2022-12-11T09:23:51;15.77;;;11.93;;
7402;SDS011;3742;48.770;11.440;2022-12-11T09:26:20;16.23;;;12.13;;
7402;SDS011;3742;48.770;11.440;2022-12-11T09:28:48;13.60;;;12.00;;
7402;SDS011;3742;48.770;11.440;2022-12-11T09:31:20;12.17;;;10.87;;
7402;SDS011;3742;48.770;11.440;2022-12-11T09:33:50;13.97;;;10.93;;
7402;SDS011;3742;48.770;11.440;2022-12-11T09:36:21;14.27;;;11.03;;
7402;SDS011;3742;48.770;11.440;2022-12-11T09:38:51;14.80;;;11.90;;
7402;SDS011;3742;48.770;11.440;2022-12-11T09:41:30;14.70;;;12.00;;
7402;SDS011;3742;48.770;11.440;2022-12-11T09:44:05;14.43;;;11.17;;
7402;SDS011;3742;48.770;11.440;2022-12-11T09:46:42;16.00;;;12.60;;
7402;SDS011;3742;48.770;11.440;2022-12-11T09:49:13;15.43;;;11.43;;
7402;SDS011;3742;48.770;11.440;2022-12-11T09:51:50;12.97;;;10.77;;
7402;SDS011;3742;48.770;11.440;2022-12-11T09:54:27;13.23;;;10.93;;
7402;SDS011;3742;48.770;11.440;2022-12-11T09:56:57;13.77;;;10.93;;
7402;SDS011;3742;48.770;11.440;2022-12-11T09:59:33;13.70;;;11.03;;
7402;SDS011;3742;48.770;11.440;2022-12-11T10:02:13;9.37;;;8.23;;
7402;SDS011;3742;48.770;11.440;2022-12-11T10:04:51;10.73;;;8.27;;
7402;SDS011;3742;48.770;11.440;2022-12-11T10:07:29;9.23;;;7.40;;
7402;SDS011;3742;48.770;11.440;2022-12-11T10:10:05;8.93;;;7.67;;
7402;SDS011;3742;48.770;11.440;2022-12-11T10:12:39;9.40;;;7.20;;
7402;SDS011;3742;48.770;11.440;2022-12-11T10:17:58;9.20;;;7.87;;
7402;SDS011;3742;48.770;11.440;2022-12-11T10:20:31;9.03;;;8.03;;
7402;SDS011;3742;48.770;11.440;2022-12-11T10:23:05;10.83;;;7.57;;
7402;SDS011;3742;48.770;11.440;2022-12-11T10:25:36;8.77;;;7.87;;
7402;SDS011;3742;48.770;11.440;2022-12-11T10:28:09;8.50;;;7.30;;
7402;SDS011;3742;48.770;11.440;2022-12-11T10:30:40;9.50;;;8.30;;
7402;SDS011;3742;48.770;11.440;2022-12-11T10:33:15;10.53;;;7.80;;
7402;SDS011;3742;48.770;11.440;2022-12-11T10:35:48;9.70;;;8.20;;
7402;SDS011;3742;48.770;11.440;2022-12-11T10:38:23;9.80;;;8.03;;
7402;SDS011;3742;48.770;11.440;2022-12-11T10:40:56;9.80;;;7.90;;
7402;SDS011;3742;48.770;11.440;2022-12-11T10:43:33;9.03;;;7.27;;
7402;SDS011;3742;48.770;11.440;2022-12-11T10:46:03;9.80;;;8.10;;
7402;SDS011;3742;48.770;11.440;2022-12-11T10:48:32;9.10;;;8.20;;
7402;SDS011;3742;48.770;11.440;2022-12-11T10:51:02;9.47;;;8.47;;
7402;SDS011;3742;48.770;11.440;2022-12-11T10:53:32;10.47;;;7.87;;
7402;SDS011;3742;48.770;11.440;2022-12-11T10:56:02;9.40;;;8.10;;
7402;SDS011;3742;48.770;11.440;2022-12-11T10:58:31;11.33;;;8.53;;
7402;SDS011;3742;48.770;11.440;2022-12-11T11:01:02;9.90;;;8.07;;
7402;SDS011;3742;48.770;11.440;2022-12-11T11:03:34;11.10;;;8.27;;
7402;SDS011;3742;48.770;11.440;2022-12-11T11:06:04;9.60;;;6.83;;
7402;SDS011;3742;48.770;11.440;2022-12-11T11:08:42;9.63;;;8.10;;
7402;SDS011;3742;48.770;11.440;2022-12-11T11:11:20;8.67;;;7.63;;
7402;SDS011;3742;48.770;11.440;2022-12-11T11:13:51;9.00;;;8.10;;
7402;SDS011;3742;48.770;11.440;2022-12-11T11:16:30;11.17;;;8.03;;
7402;SDS011;3742;48.770;11.440;2022-12-11T11:19:02;10.10;;;7.23;;
7402;SDS011;3742;48.770;11.440;2022-12-11T11:21:31;11.17;;;8.50;;
7402;SDS011;3742;48.770;11.440;2022-12-11T11:24:02;7.93;;;6.70;;
7402;SDS011;3742;48.770;11.440;2022-12-11T11:26:32;8.23;;;7.43;;
7402;SDS011;3742;48.770;11.440;2022-12-11T11:29:22;11.37;;;9.30;;
7402;SDS011;3742;48.770;11.440;2022-12-11T11:31:53;9.83;;;8.43;;
7402;SDS011;3742;48.770;11.440;2022-12-11T11:34:22;8.73;;;7.83;;
7402;SDS011;3742;48.770;11.440;2022-12-11T11:36:54;10.90;;;9.07;;
7402;SDS011;3742;48.770;11.440;2022-12-11T11:39:25;10.17;;;8.97;;
7402;SDS011;3742;48.770;11.440;2022-12-11T11:41:57;9.03;;;7.60;;
7402;SDS011;3742;48.770;11.440;2022-12-11T11:44:29;11.40;;;8.87;;
7402;SDS011;3742;48.770;11.440;2022-12-11T11:47:01;8.40;;;7.50;;
7402;SDS011;3742;48.770;11.440;2022-12-11T11:49:40;17.93;;;9.80;;
7402;SDS011;3742;48.770;11.440;2022-12-11T11:52:14;11.20;;;9.47;;
7402;SDS011;3742;48.770;11.440;2022-12-11T11:54:48;13.27;;;9.90;;
7402;SDS011;3742;48.770;11.440;2022-12-11T11:57:22;10.37;;;9.13;;
7402;SDS011;3742;48.770;11.440;2022-12-11T11:59:54;11.70;;;9.53;;
7402;SDS011;3742;48.770;11.440;2022-12-11T12:02:26;10.57;;;8.33;;
7402;SDS011;3742;48.770;11.440;2022-12-11T12:04:55;11.17;;;9.17;;
7402;SDS011;3742;48.770;11.440;2022-12-11T12:07:27;10.67;;;8.77;;
7402;SDS011;3742;48.770;11.440;2022-12-11T12:10:02;27.40;;;10.63;;
7402;SDS011;3742;48.770;11.440;2022-12-11T12:12:41;11.37;;;8.77;;
7402;SDS011;3742;48.770;11.440;2022-12-11T12:15:14;10.57;;;8.37;;
7402;SDS011;3742;48.770;11.440;2022-12-11T12:17:50;10.23;;;8.43;;
7402;SDS011;3742;48.770;11.440;2022-12-11T12:20:27;10.07;;;8.77;;
7402;SDS011;3742;48.770;11.440;2022-12-11T12:23:02;10.10;;;8.73;;
7402;SDS011;3742;48.770;11.440;2022-12-11T12:25:41;11.70;;;9.60;;
7402;SDS011;3742;48.770;11.440;2022-12-11T12:28:17;13.13;;;10.10;;
7402;SDS011;3742;48.770;11.440;2022-12-11T12:30:53;11.07;;;9.37;;
7402;SDS011;3742;48.770;11.440;2022-12-11T12:33:30;11.67;;;9.23;;
7402;SDS011;3742;48.770;11.440;2022-12-11T12:36:07;11.33;;;9.40;;
7402;SDS011;3742;48.770;11.440;2022-12-11T12:38:41;10.93;;;9.50;;
7402;SDS011;3742;48.770;11.440;2022-12-11T12:41:16;12.83;;;9.70;;
7402;SDS011;3742;48.770;11.440;2022-12-11T12:43:55;11.63;;;10.40;;
7402;SDS011;3742;48.770;11.440;2022-12-11T12:46:33;15.90;;;13.80;;
7402;SDS011;3742;48.770;11.440;2022-12-11T12:49:11;15.57;;;10.10;;
7402;SDS011;3742;48.770;11.440;2022-12-11T12:51:42;70.07;;;12.73;;
7402;SDS011;3742;48.770;11.440;2022-12-11T12:54:13;16.60;;;10.13;;
7402;SDS011;3742;48.770;11.440;2022-12-11T12:56:43;14.77;;;12.50;;
7402;SDS011;3742;48.770;11.440;2022-12-11T12:59:21;12.93;;;10.00;;
7402;SDS011;3742;48.770;11.440;2022-12-11T13:01:52;12.53;;;11.27;;
7402;SDS011;3742;48.770;11.440;2022-12-11T13:04:27;13.97;;;10.73;;
7402;SDS011;3742;48.770;11.440;2022-12-11T13:07:21;11.30;;;9.83;;
7402;SDS011;3742;48.770;11.440;2022-12-11T13:09:57;12.60;;;10.23;;
7402;SDS011;3742;48.770;11.440;2022-12-11T13:12:32;12.90;;;10.50;;
7402;SDS011;3742;48.770;11.440;2022-12-11T13:18:01;10.67;;;8.93;;
7402;SDS011;3742;48.770;11.440;2022-12-11T13:20:31;13.37;;;10.07;;
7402;SDS011;3742;48.770;11.440;2022-12-11T13:23:09;11.37;;;9.03;;
7402;SDS011;3742;48.770;11.440;2022-12-11T13:25:45;13.50;;;9.70;;
7402;SDS011;3742;48.770;11.440;2022-12-11T13:28:22;11.33;;;9.83;;
7402;SDS011;3742;48.770;11.440;2022-12-11T13:31:29;12.47;;;9.90;;
7402;SDS011;3742;48.770;11.440;2022-12-11T13:34:14;16.73;;;10.60;;
7402;SDS011;3742;48.770;11.440;2022-12-11T13:36:47;14.67;;;11.27;;
7402;SDS011;3742;48.770;11.440;2022-12-11T13:39:17;13.67;;;11.07;;
7402;SDS011;3742;48.770;11.440;2022-12-11T13:41:47;13.37;;;11.77;;
7402;SDS011;3742;48.770;11.440;2022-12-11T13:44:20;12.47;;;10.37;;
7402;SDS011;3742;48.770;11.440;2022-12-11T13:46:53;16.50;;;11.40;;
7402;SDS011;3742;48.770;11.440;2022-12-11T13:49:23;15.43;;;11.80;;
7402;SDS011;3742;48.770;11.440;2022-12-11T13:51:54;14.37;;;11.63;;
7402;SDS011;3742;48.770;11.440;2022-12-11T13:54:24;13.20;;;9.97;;
7402;SDS011;3742;48.770;11.440;2022-12-11T13:56:55;13.10;;;9.93;;
7402;SDS011;3742;48.770;11.440;2022-12-11T13:59:27;13.20;;;10.27;;
7402;SDS011;3742;48.770;11.440;2022-12-11T14:02:01;12.23;;;10.03;;
7402;SDS011;3742;48.770;11.440;2022-12-11T14:04:37;11.20;;;9.97;;
7402;SDS011;3742;48.770;11.440;2022-12-11T14:07:06;13.37;;;10.07;;
7402;SDS011;3742;48.770;11.440;2022-12-11T14:09:36;15.47;;;10.10;;
7402;SDS011;3742;48.770;11.440;2022-12-11T14:12:11;12.80;;;10.40;;
7402;SDS011;3742;48.770;11.440;2022-12-11T14:14:44;12.37;;;10.20;;
7402;SDS011;3742;48.770;11.440;2022-12-11T14:17:18;12.87;;;10.80;;
7402;SDS011;3742;48.770;11.440;2022-12-11T14:19:52;16.73;;;12.23;;
7402;SDS011;3742;48.770;11.440;2022-12-11T14:22:23;12.67;;;9.90;;
7402;SDS011;3742;48.770;11.440;2022-12-11T14:24:53;11.40;;;9.20;;
7402;SDS011;3742;48.770;11.440;2022-12-11T14:27:25;12.30;;;10.13;;
7402;SDS011;3742;48.770;11.440;2022-12-11T14:29:54;32.73;;;20.77;;
7402;SDS011;3742;48.770;11.440;2022-12-11T14:32:26;14.17;;;11.33;;
7402;SDS011;3742;48.770;11.440;2022-12-11T14:34:58;14.17;;;11.43;;
7402;SDS011;3742;48.770;11.440;2022-12-11T14:37:32;14.97;;;12.33;;
7402;SDS011;3742;48.770;11.440;2022-12-11T14:40:02;14.43;;;11.30;;
7402;SDS011;3742;48.770;11.440;2022-12-11T14:42:35;13.13;;;10.80;;
7402;SDS011;3742;48.770;11.440;2022-12-11T14:45:07;13.23;;;10.83;;
7402;SDS011;3742;48.770;11.440;2022-12-11T14:47:44;13.90;;;11.03;;
7402;SDS011;3742;48.770;11.440;2022-12-11T14:50:14;12.63;;;10.23;;
7402;SDS011;3742;48.770;11.440;2022-12-11T14:52:46;14.53;;;11.43;;
7402;SDS011;3742;48.770;11.440;2022-12-11T14:55:18;12.30;;;10.60;;
7402;SDS011;3742;48.770;11.440;2022-12-11T14:57:49;13.77;;;10.43;;
7402;SDS011;3742;48.770;11.440;2022-12-11T15:00:20;12.80;;;10.40;;
7402;SDS011;3742;48.770;11.440;2022-12-11T15:02:58;12.73;;;10.07;;
7402;SDS011;3742;48.770;11.440;2022-12-11T15:05:28;15.03;;;10.33;;
7402;SDS011;3742;48.770;11.440;2022-12-11T15:08:16;13.80;;;10.50;;
7402;SDS011;3742;48.770;11.440;2022-12-11T15:11:01;12.20;;;10.27;;
7402;SDS011;3742;48.770;11.440;2022-12-11T15:13:31;13.83;;;10.63;;